sensor_id;sensor_type;location;lat;lon;timestamp;pressure;altitude;pressure_sealevel;temperature;humidity
62978;BME280;49073;42.352;23.808;2023-05-10T00:02:12;95039.47;;;7.49;100.00
62978;BME280;49073;42.352;23.808;2023-05-10T00:05:14;95039.19;;;7.41;100.00
62978;BME280;49073;42.352;23.808;2023-05-10T00:08:14;95030.03;;;7.39;100.00
62978;BME280;49073;42.352;23.808;2023-05-10T00:11:15;95024.97;;;7.25;100.00
62978;BME280;49073;42.352;23.808;2023-05-10T00:14:16;95026.59;;;7.38;100.00
62978;BME280;49073;42.352;23.808;2023-05-10T00:17:16;95020.84;;;7.36;100.00
62978;BME280;49073;42.352;23.808;2023-05-10T00:20:17;95029.69;;;7.40;100.00
62978;BME280;49073;42.352;23.808;2023-05-10T00:23:17;95028.19;;;7.31;100.00
62978;BME280;49073;42.352;23.808;2023-05-10T00:26:18;95024.19;;;7.24;100.00
62978;BME280;49073;42.352;23.808;2023-05-10T00:29:18;95026.06;;;7.24;100.00
62978;BME280;49073;42.352;23.808;2023-05-10T00:32:19;95020.31;;;7.22;100.00
62978;BME280;49073;42.352;23.808;2023-05-10T00:35:20;95023.66;;;7.10;100.00
62978;BME280;49073;42.352;23.808;2023-05-10T00:38:21;95024.34;;;6.98;100.00
62978;BME280;49073;42.352;23.808;2023-05-10T00:41:23;95036.13;;;6.88;100.00
62978;BME280;49073;42.352;23.808;2023-05-10T00:44:24;95030.94;;;6.92;100.00
62978;BME280;49073;42.352;23.808;2023-05-10T00:47:24;95029.16;;;7.05;100.00
62978;BME280;49073;42.352;23.808;2023-05-10T00:50:25;95028.81;;;7.06;100.00
62978;BME280;49073;42.352;23.808;2023-05-10T00:53:26;95031.34;;;7.03;100.00
62978;BME280;49073;42.352;23.808;2023-05-10T00:56:27;95032.88;;;6.74;100.00
62978;BME280;49073;42.352;23.808;2023-05-10T00:59:29;95036.88;;;6.59;100.00
62978;BME280;49073;42.352;23.808;2023-05-10T01:02:30;95036.97;;;6.71;100.00
62978;BME280;49073;42.352;23.808;2023-05-10T01:05:30;95029.78;;;6.72;100.00
62978;BME280;49073;42.352;23.808;2023-05-10T01:08:32;95040.34;;;6.50;100.00
62978;BME280;49073;42.352;23.808;2023-05-10T01:11:35;95044.34;;;6.57;100.00
62978;BME280;49073;42.352;23.808;2023-05-10T01:14:36;95048.38;;;6.63;100.00
62978;BME280;49073;42.352;23.808;2023-05-10T01:17:38;95047.47;;;6.59;100.00
62978;BME280;49073;42.352;23.808;2023-05-10T01:20:43;95049.16;;;6.63;100.00
62978;BME280;49073;42.352;23.808;2023-05-10T01:27:30;95054.81;;;6.44;100.00
62978;BME280;49073;42.352;23.808;2023-05-10T01:30:55;95052.34;;;6.39;100.00
62978;BME280;49073;42.352;23.808;2023-05-10T01:37:11;95050.13;;;6.50;100.00
62978;BME280;49073;42.352;23.808;2023-05-10T01:40:32;95051.25;;;6.40;100.00
62978;BME280;49073;42.352;23.808;2023-05-10T01:43:51;95042.81;;;6.47;100.00
62978;BME280;49073;42.352;23.808;2023-05-10T01:47:05;95047.78;;;6.57;100.00
62978;BME280;49073;42.352;23.808;2023-05-10T01:50:18;95043.38;;;6.61;100.00
62978;BME280;49073;42.352;23.808;2023-05-10T01:53:21;95039.09;;;6.39;100.00
62978;BME280;49073;42.352;23.808;2023-05-10T01:56:24;95043.00;;;6.42;100.00
62978;BME280;49073;42.352;23.808;2023-05-10T01:59:30;95040.66;;;6.40;100.00
62978;BME280;49073;42.352;23.808;2023-05-10T02:02:37;95039.56;;;6.41;100.00
62978;BME280;49073;42.352;23.808;2023-05-10T02:05:40;95045.38;;;6.34;100.00
62978;BME280;49073;42.352;23.808;2023-05-10T02:08:43;95046.31;;;6.30;100.00
62978;BME280;49073;42.352;23.808;2023-05-10T02:11:47;95036.50;;;6.30;100.00
62978;BME280;49073;42.352;23.808;2023-05-10T02:14:50;95035.69;;;6.38;100.00
62978;BME280;49073;42.352;23.808;2023-05-10T02:17:55;95031.63;;;6.41;100.00
62978;BME280;49073;42.352;23.808;2023-05-10T02:20:57;95037.38;;;6.43;100.00
62978;BME280;49073;42.352;23.808;2023-05-10T02:23:59;95039.69;;;6.53;100.00
62978;BME280;49073;42.352;23.808;2023-05-10T02:27:02;95033.50;;;6.49;100.00
62978;BME280;49073;42.352;23.808;2023-05-10T02:30:05;95028.03;;;6.46;100.00
62978;BME280;49073;42.352;23.808;2023-05-10T02:33:07;95030.06;;;6.40;100.00
62978;BME280;49073;42.352;23.808;2023-05-10T02:36:09;95025.41;;;6.37;100.00
62978;BME280;49073;42.352;23.808;2023-05-10T02:39:11;95027.00;;;6.29;100.00
62978;BME280;49073;42.352;23.808;2023-05-10T02:42:18;95026.84;;;6.34;100.00
62978;BME280;49073;42.352;23.808;2023-05-10T02:45:21;95024.00;;;6.39;100.00
62978;BME280;49073;42.352;23.808;2023-05-10T02:48:23;95027.25;;;6.45;100.00
62978;BME280;49073;42.352;23.808;2023-05-10T02:51:28;95024.75;;;6.49;100.00
62978;BME280;49073;42.352;23.808;2023-05-10T02:54:33;95017.59;;;6.49;100.00
62978;BME280;49073;42.352;23.808;2023-05-10T02:57:41;95021.34;;;6.48;100.00
62978;BME280;49073;42.352;23.808;2023-05-10T03:00:44;95017.88;;;6.57;100.00
62978;BME280;49073;42.352;23.808;2023-05-10T03:03:45;95026.28;;;6.59;100.00
62978;BME280;49073;42.352;23.808;2023-05-10T03:06:46;95027.47;;;6.70;100.00
62978;BME280;49073;42.352;23.808;2023-05-10T03:09:48;95024.91;;;6.82;100.00
62978;BME280;49073;42.352;23.808;2023-05-10T03:13:12;95025.47;;;6.67;100.00
62978;BME280;49073;42.352;23.808;2023-05-10T03:16:24;95024.63;;;6.75;100.00
62978;BME280;49073;42.352;23.808;2023-05-10T03:19:46;95031.94;;;6.78;100.00
62978;BME280;49073;42.352;23.808;2023-05-10T03:22:51;95024.72;;;6.58;100.00
62978;BME280;49073;42.352;23.808;2023-05-10T03:25:53;95022.09;;;6.58;100.00
62978;BME280;49073;42.352;23.808;2023-05-10T03:28:55;95032.16;;;6.64;100.00
62978;BME280;49073;42.352;23.808;2023-05-10T03:32:00;95029.09;;;6.53;100.00
62978;BME280;49073;42.352;23.808;2023-05-10T03:35:06;95021.75;;;6.59;100.00
62978;BME280;49073;42.352;23.808;2023-05-10T03:38:06;95028.69;;;6.73;100.00
62978;BME280;49073;42.352;23.808;2023-05-10T03:41:06;95038.81;;;6.70;100.00
62978;BME280;49073;42.352;23.808;2023-05-10T03:44:07;95032.84;;;6.52;100.00
62978;BME280;49073;42.352;23.808;2023-05-10T03:47:07;95036.09;;;6.58;100.00
62978;BME280;49073;42.352;23.808;2023-05-10T03:50:08;95029.69;;;6.59;100.00
62978;BME280;49073;42.352;23.808;2023-05-10T03:53:10;95029.75;;;6.50;100.00
62978;BME280;49073;42.352;23.808;2023-05-10T03:56:11;95035.25;;;6.66;100.00
62978;BME280;49073;42.352;23.808;2023-05-10T03:59:11;95043.44;;;6.52;100.00
62978;BME280;49073;42.352;23.808;2023-05-10T04:02:12;95040.63;;;6.49;100.00
62978;BME280;49073;42.352;23.808;2023-05-10T04:05:12;95045.63;;;6.50;100.00
62978;BME280;49073;42.352;23.808;2023-05-10T04:08:13;95040.81;;;6.44;100.00
62978;BME280;49073;42.352;23.808;2023-05-10T04:11:15;95041.72;;;6.57;100.00
62978;BME280;49073;42.352;23.808;2023-05-10T04:14:15;95043.22;;;6.66;100.00
62978;BME280;49073;42.352;23.808;2023-05-10T04:17:16;95040.25;;;6.68;100.00
62978;BME280;49073;42.352;23.808;2023-05-10T04:20:17;95039.91;;;6.69;100.00
62978;BME280;49073;42.352;23.808;2023-05-10T04:23:17;95039.16;;;6.69;100.00
62978;BME280;49073;42.352;23.808;2023-05-10T04:26:18;95031.88;;;6.57;100.00
62978;BME280;49073;42.352;23.808;2023-05-10T04:29:18;95035.50;;;6.52;100.00
62978;BME280;49073;42.352;23.808;2023-05-10T04:32:19;95044.22;;;6.44;100.00
62978;BME280;49073;42.352;23.808;2023-05-10T04:35:20;95037.56;;;6.38;100.00
62978;BME280;49073;42.352;23.808;2023-05-10T04:38:21;95027.88;;;6.42;100.00
62978;BME280;49073;42.352;23.808;2023-05-10T04:41:22;95034.31;;;6.32;100.00
62978;BME280;49073;42.352;23.808;2023-05-10T04:44:22;95036.63;;;6.34;100.00
62978;BME280;49073;42.352;23.808;2023-05-10T04:47:23;95028.22;;;6.32;100.00
62978;BME280;49073;42.352;23.808;2023-05-10T04:50:23;95026.03;;;6.34;100.00
62978;BME280;49073;42.352;23.808;2023-05-10T04:53:24;95027.69;;;6.47;100.00
62978;BME280;49073;42.352;23.808;2023-05-10T04:56:25;95027.94;;;6.33;100.00
62978;BME280;49073;42.352;23.808;2023-05-10T04:59:26;95028.22;;;6.40;100.00
62978;BME280;49073;42.352;23.808;2023-05-10T05:02:26;95030.41;;;6.30;100.00
62978;BME280;49073;42.352;23.808;2023-05-10T05:05:27;95039.72;;;6.45;100.00
62978;BME280;49073;42.352;23.808;2023-05-10T05:08:27;95040.91;;;6.56;100.00
62978;BME280;49073;42.352;23.808;2023-05-10T05:11:28;95041.47;;;6.32;100.00
62978;BME280;49073;42.352;23.808;2023-05-10T05:14:28;95041.44;;;6.49;100.00
62978;BME280;49073;42.352;23.808;2023-05-10T05:17:32;95036.72;;;6.55;100.00
62978;BME280;49073;42.352;23.808;2023-05-10T05:20:33;95048.69;;;6.61;100.00
62978;BME280;49073;42.352;23.808;2023-05-10T05:23:34;95039.97;;;6.61;100.00
62978;BME280;49073;42.352;23.808;2023-05-10T05:26:35;95043.09;;;6.63;100.00
62978;BME280;49073;42.352;23.808;2023-05-10T05:29:35;95041.34;;;6.67;100.00
62978;BME280;49073;42.352;23.808;2023-05-10T05:32:36;95042.56;;;6.69;100.00
62978;BME280;49073;42.352;23.808;2023-05-10T05:35:36;95044.75;;;6.67;100.00
62978;BME280;49073;42.352;23.808;2023-05-10T05:38:37;95047.06;;;6.78;100.00
62978;BME280;49073;42.352;23.808;2023-05-10T05:41:37;95050.19;;;6.80;100.00
62978;BME280;49073;42.352;23.808;2023-05-10T05:44:38;95045.97;;;6.79;100.00
62978;BME280;49073;42.352;23.808;2023-05-10T05:47:39;95049.56;;;6.74;100.00
62978;BME280;49073;42.352;23.808;2023-05-10T05:50:40;95048.47;;;6.75;100.00
62978;BME280;49073;42.352;23.808;2023-05-10T05:53:40;95048.22;;;6.59;100.00
62978;BME280;49073;42.352;23.808;2023-05-10T05:56:41;95049.28;;;6.67;100.00
62978;BME280;49073;42.352;23.808;2023-05-10T05:59:41;95047.75;;;6.66;100.00
62978;BME280;49073;42.352;23.808;2023-05-10T06:02:43;95050.22;;;6.71;100.00
62978;BME280;49073;42.352;23.808;2023-05-10T06:05:44;95049.28;;;6.67;100.00
62978;BME280;49073;42.352;23.808;2023-05-10T06:08:45;95051.50;;;6.56;100.00
62978;BME280;49073;42.352;23.808;2023-05-10T06:11:45;95056.91;;;6.68;100.00
62978;BME280;49073;42.352;23.808;2023-05-10T06:14:46;95060.00;;;6.70;100.00
62978;BME280;49073;42.352;23.808;2023-05-10T06:17:47;95068.38;;;6.81;100.00
62978;BME280;49073;42.352;23.808;2023-05-10T06:20:49;95066.38;;;6.78;100.00
62978;BME280;49073;42.352;23.808;2023-05-10T06:23:50;95066.53;;;6.82;100.00
62978;BME280;49073;42.352;23.808;2023-05-10T06:26:51;95068.53;;;6.85;100.00
62978;BME280;49073;42.352;23.808;2023-05-10T06:29:51;95065.28;;;6.79;100.00
62978;BME280;49073;42.352;23.808;2023-05-10T06:32:52;95065.13;;;6.76;100.00
62978;BME280;49073;42.352;23.808;2023-05-10T06:35:53;95070.91;;;6.78;100.00
62978;BME280;49073;42.352;23.808;2023-05-10T06:38:54;95074.78;;;6.80;100.00
62978;BME280;49073;42.352;23.808;2023-05-10T06:41:55;95074.69;;;6.68;100.00
62978;BME280;49073;42.352;23.808;2023-05-10T06:44:56;95070.66;;;6.62;100.00
62978;BME280;49073;42.352;23.808;2023-05-10T06:47:56;95072.09;;;6.50;100.00
62978;BME280;49073;42.352;23.808;2023-05-10T06:50:57;95072.31;;;6.75;100.00
62978;BME280;49073;42.352;23.808;2023-05-10T06:53:57;95064.53;;;6.70;100.00
62978;BME280;49073;42.352;23.808;2023-05-10T06:56:58;95074.81;;;6.72;100.00
62978;BME280;49073;42.352;23.808;2023-05-10T06:59:59;95076.75;;;6.92;100.00
62978;BME280;49073;42.352;23.808;2023-05-10T07:02:59;95069.63;;;6.84;100.00
62978;BME280;49073;42.352;23.808;2023-05-10T07:06:03;95082.19;;;6.96;100.00
62978;BME280;49073;42.352;23.808;2023-05-10T07:09:04;95078.63;;;6.92;100.00
62978;BME280;49073;42.352;23.808;2023-05-10T07:12:04;95075.94;;;7.01;100.00
62978;BME280;49073;42.352;23.808;2023-05-10T07:15:05;95079.00;;;7.11;100.00
62978;BME280;49073;42.352;23.808;2023-05-10T07:18:06;95077.84;;;7.21;100.00
62978;BME280;49073;42.352;23.808;2023-05-10T07:21:07;95082.97;;;7.26;100.00
62978;BME280;49073;42.352;23.808;2023-05-10T07:24:07;95081.41;;;7.25;100.00
62978;BME280;49073;42.352;23.808;2023-05-10T07:27:08;95092.25;;;7.11;100.00
62978;BME280;49073;42.352;23.808;2023-05-10T07:30:09;95086.81;;;7.08;100.00
62978;BME280;49073;42.352;23.808;2023-05-10T07:33:12;95090.00;;;6.92;100.00
62978;BME280;49073;42.352;23.808;2023-05-10T07:36:13;95092.03;;;6.95;100.00
62978;BME280;49073;42.352;23.808;2023-05-10T07:39:13;95085.16;;;6.94;100.00
62978;BME280;49073;42.352;23.808;2023-05-10T07:42:14;95089.81;;;6.97;100.00
62978;BME280;49073;42.352;23.808;2023-05-10T07:45:14;95089.69;;;6.94;100.00
62978;BME280;49073;42.352;23.808;2023-05-10T07:48:17;95089.69;;;6.94;100.00
62978;BME280;49073;42.352;23.808;2023-05-10T07:51:18;95091.56;;;6.93;100.00
62978;BME280;49073;42.352;23.808;2023-05-10T07:54:19;95090.81;;;6.84;100.00
62978;BME280;49073;42.352;23.808;2023-05-10T07:57:19;95091.97;;;7.04;100.00
62978;BME280;49073;42.352;23.808;2023-05-10T08:00:20;95092.72;;;7.13;100.00
62978;BME280;49073;42.352;23.808;2023-05-10T08:03:20;95084.19;;;6.99;100.00
62978;BME280;49073;42.352;23.808;2023-05-10T08:06:21;95085.69;;;7.18;100.00
62978;BME280;49073;42.352;23.808;2023-05-10T08:09:22;95076.81;;;7.35;100.00
62978;BME280;49073;42.352;23.808;2023-05-10T08:12:23;95087.44;;;7.35;100.00
62978;BME280;49073;42.352;23.808;2023-05-10T08:15:24;95083.38;;;7.37;100.00
62978;BME280;49073;42.352;23.808;2023-05-10T08:18:25;95098.38;;;7.33;99.66
62978;BME280;49073;42.352;23.808;2023-05-10T08:21:26;95098.88;;;7.26;100.00
62978;BME280;49073;42.352;23.808;2023-05-10T08:24:26;95096.28;;;7.18;99.36
62978;BME280;49073;42.352;23.808;2023-05-10T08:27:27;95096.13;;;7.14;98.08
62978;BME280;49073;42.352;23.808;2023-05-10T08:30:28;95098.94;;;7.18;97.02
62978;BME280;49073;42.352;23.808;2023-05-10T08:33:29;95105.13;;;7.22;97.37
62978;BME280;49073;42.352;23.808;2023-05-10T08:36:29;95091.38;;;7.28;98.38
62978;BME280;49073;42.352;23.808;2023-05-10T08:39:34;95093.97;;;7.37;98.03
62978;BME280;49073;42.352;23.808;2023-05-10T08:42:36;95101.63;;;7.39;97.93
62978;BME280;49073;42.352;23.808;2023-05-10T08:45:42;95103.09;;;7.49;97.30
62978;BME280;49073;42.352;23.808;2023-05-10T08:48:48;95100.59;;;7.52;96.70
62978;BME280;49073;42.352;23.808;2023-05-10T08:51:51;95103.25;;;7.52;96.28
62978;BME280;49073;42.352;23.808;2023-05-10T08:54:52;95096.13;;;7.65;96.74
62978;BME280;49073;42.352;23.808;2023-05-10T08:57:53;95099.69;;;7.69;97.30
62978;BME280;49073;42.352;23.808;2023-05-10T09:00:54;95107.25;;;7.59;95.63
62978;BME280;49073;42.352;23.808;2023-05-10T09:03:55;95100.00;;;7.47;95.75
62978;BME280;49073;42.352;23.808;2023-05-10T09:06:56;95090.94;;;7.48;96.00
62978;BME280;49073;42.352;23.808;2023-05-10T09:09:57;95095.34;;;7.65;97.11
62978;BME280;49073;42.352;23.808;2023-05-10T09:12:58;95100.00;;;7.68;95.10
62978;BME280;49073;42.352;23.808;2023-05-10T09:15:59;95097.16;;;7.73;93.77
62978;BME280;49073;42.352;23.808;2023-05-10T09:19:00;95101.16;;;7.79;92.30
62978;BME280;49073;42.352;23.808;2023-05-10T09:22:01;95092.00;;;7.77;90.61
62978;BME280;49073;42.352;23.808;2023-05-10T09:28:09;95105.72;;;7.79;90.78
62978;BME280;49073;42.352;23.808;2023-05-10T09:31:10;95098.44;;;7.67;91.68
62978;BME280;49073;42.352;23.808;2023-05-10T09:34:11;95097.81;;;7.70;92.54
62978;BME280;49073;42.352;23.808;2023-05-10T09:37:11;95101.56;;;7.69;93.22
62978;BME280;49073;42.352;23.808;2023-05-10T09:40:13;95100.41;;;7.79;93.69
62978;BME280;49073;42.352;23.808;2023-05-10T09:43:15;95095.25;;;7.95;94.18
62978;BME280;49073;42.352;23.808;2023-05-10T09:46:16;95096.25;;;7.90;93.04
62978;BME280;49073;42.352;23.808;2023-05-10T09:49:16;95090.94;;;7.90;92.55
62978;BME280;49073;42.352;23.808;2023-05-10T09:52:17;95089.38;;;7.89;93.65
62978;BME280;49073;42.352;23.808;2023-05-10T09:55:20;95084.28;;;7.84;94.54
62978;BME280;49073;42.352;23.808;2023-05-10T09:58:20;95086.34;;;7.78;94.69
62978;BME280;49073;42.352;23.808;2023-05-10T10:01:21;95081.94;;;7.82;93.94
62978;BME280;49073;42.352;23.808;2023-05-10T10:04:26;95080.19;;;7.86;94.42
62978;BME280;49073;42.352;23.808;2023-05-10T10:07:27;95080.09;;;7.83;95.44
62978;BME280;49073;42.352;23.808;2023-05-10T10:10:29;95078.00;;;7.89;97.05
62978;BME280;49073;42.352;23.808;2023-05-10T10:13:31;95081.91;;;7.70;96.92
62978;BME280;49073;42.352;23.808;2023-05-10T10:16:32;95075.19;;;7.72;99.64
62978;BME280;49073;42.352;23.808;2023-05-10T10:19:34;95087.34;;;7.74;100.00
62978;BME280;49073;42.352;23.808;2023-05-10T10:22:36;95079.94;;;7.58;100.00
62978;BME280;49073;42.352;23.808;2023-05-10T10:25:37;95083.94;;;7.64;100.00
62978;BME280;49073;42.352;23.808;2023-05-10T10:29:04;95081.84;;;7.57;100.00
62978;BME280;49073;42.352;23.808;2023-05-10T10:32:28;95083.31;;;7.46;100.00
62978;BME280;49073;42.352;23.808;2023-05-10T10:35:30;95077.22;;;7.46;100.00
62978;BME280;49073;42.352;23.808;2023-05-10T10:41:58;95080.94;;;7.53;100.00
62978;BME280;49073;42.352;23.808;2023-05-10T10:45:13;95075.19;;;7.72;100.00
62978;BME280;49073;42.352;23.808;2023-05-10T10:48:23;95078.47;;;7.69;100.00
62978;BME280;49073;42.352;23.808;2023-05-10T10:51:23;95077.44;;;7.62;100.00
62978;BME280;49073;42.352;23.808;2023-05-10T10:54:28;95074.28;;;7.68;100.00
62978;BME280;49073;42.352;23.808;2023-05-10T10:57:31;95075.88;;;7.82;100.00
62978;BME280;49073;42.352;23.808;2023-05-10T11:00:36;95075.88;;;7.82;100.00
62978;BME280;49073;42.352;23.808;2023-05-10T11:03:37;95081.38;;;7.77;100.00
62978;BME280;49073;42.352;23.808;2023-05-10T11:06:38;95084.09;;;7.68;100.00
62978;BME280;49073;42.352;23.808;2023-05-10T11:09:40;95088.09;;;7.74;100.00
62978;BME280;49073;42.352;23.808;2023-05-10T11:13:00;95079.50;;;7.77;100.00
62978;BME280;49073;42.352;23.808;2023-05-10T11:16:14;95083.91;;;7.73;100.00
62978;BME280;49073;42.352;23.808;2023-05-10T11:19:16;95082.09;;;7.86;100.00
62978;BME280;49073;42.352;23.808;2023-05-10T11:22:17;95081.75;;;7.88;100.00
62978;BME280;49073;42.352;23.808;2023-05-10T11:25:19;95084.53;;;7.91;100.00
62978;BME280;49073;42.352;23.808;2023-05-10T11:28:19;95080.28;;;7.78;100.00
62978;BME280;49073;42.352;23.808;2023-05-10T11:31:20;95084.75;;;7.86;100.00
62978;BME280;49073;42.352;23.808;2023-05-10T11:34:25;95082.53;;;7.88;100.00
62978;BME280;49073;42.352;23.808;2023-05-10T11:37:28;95075.53;;;7.83;100.00
62978;BME280;49073;42.352;23.808;2023-05-10T11:40:32;95072.88;;;7.83;100.00
62978;BME280;49073;42.352;23.808;2023-05-10T11:43:34;95079.44;;;7.86;100.00
62978;BME280;49073;42.352;23.808;2023-05-10T11:46:36;95073.28;;;7.94;100.00
62978;BME280;49073;42.352;23.808;2023-05-10T11:49:36;95076.53;;;7.79;100.00
62978;BME280;49073;42.352;23.808;2023-05-10T11:52:37;95066.94;;;7.86;100.00
62978;BME280;49073;42.352;23.808;2023-05-10T11:55:38;95074.63;;;7.79;100.00
62978;BME280;49073;42.352;23.808;2023-05-10T11:58:39;95079.94;;;7.79;100.00
62978;BME280;49073;42.352;23.808;2023-05-10T12:01:41;95078.25;;;7.96;100.00
62978;BME280;49073;42.352;23.808;2023-05-10T12:04:42;95075.78;;;7.91;100.00
62978;BME280;49073;42.352;23.808;2023-05-10T12:07:42;95068.28;;;7.93;100.00
62978;BME280;49073;42.352;23.808;2023-05-10T12:10:43;95064.41;;;7.90;100.00
62978;BME280;49073;42.352;23.808;2023-05-10T12:13:44;95057.72;;;8.05;100.00
62978;BME280;49073;42.352;23.808;2023-05-10T12:16:47;95068.25;;;8.14;100.00
62978;BME280;49073;42.352;23.808;2023-05-10T12:19:48;95060.47;;;8.09;100.00
62978;BME280;49073;42.352;23.808;2023-05-10T12:22:54;95070.25;;;8.17;100.00
62978;BME280;49073;42.352;23.808;2023-05-10T12:26:02;95061.03;;;8.02;100.00
62978;BME280;49073;42.352;23.808;2023-05-10T12:29:14;95064.13;;;8.04;100.00
62978;BME280;49073;42.352;23.808;2023-05-10T12:32:15;95047.22;;;8.09;100.00
62978;BME280;49073;42.352;23.808;2023-05-10T12:35:16;95057.19;;;8.12;100.00
62978;BME280;49073;42.352;23.808;2023-05-10T12:38:37;95056.41;;;8.11;100.00
62978;BME280;49073;42.352;23.808;2023-05-10T12:41:38;95051.09;;;8.11;100.00
62978;BME280;49073;42.352;23.808;2023-05-10T12:44:39;95048.25;;;8.17;100.00
62978;BME280;49073;42.352;23.808;2023-05-10T12:47:40;95038.72;;;8.15;100.00
62978;BME280;49073;42.352;23.808;2023-05-10T12:50:40;95035.34;;;8.27;100.00
62978;BME280;49073;42.352;23.808;2023-05-10T12:53:41;95037.44;;;8.34;100.00
62978;BME280;49073;42.352;23.808;2023-05-10T12:56:43;95038.53;;;8.33;100.00
62978;BME280;49073;42.352;23.808;2023-05-10T12:59:43;95040.31;;;8.29;100.00
62978;BME280;49073;42.352;23.808;2023-05-10T13:02:44;95030.22;;;8.22;100.00
62978;BME280;49073;42.352;23.808;2023-05-10T13:05:45;95028.03;;;8.37;100.00
62978;BME280;49073;42.352;23.808;2023-05-10T13:08:45;95025.22;;;8.54;100.00
62978;BME280;49073;42.352;23.808;2023-05-10T13:11:46;95017.56;;;8.53;100.00
62978;BME280;49073;42.352;23.808;2023-05-10T13:14:48;95011.94;;;8.54;99.67
62978;BME280;49073;42.352;23.808;2023-05-10T13:17:48;95010.50;;;8.57;99.25
62978;BME280;49073;42.352;23.808;2023-05-10T13:20:49;95007.06;;;8.69;99.04
62978;BME280;49073;42.352;23.808;2023-05-10T13:23:49;95006.84;;;8.62;98.04
62978;BME280;49073;42.352;23.808;2023-05-10T13:26:50;95003.28;;;8.70;98.84
62978;BME280;49073;42.352;23.808;2023-05-10T13:29:50;94998.19;;;8.65;97.56
62978;BME280;49073;42.352;23.808;2023-05-10T13:32:51;94995.75;;;8.72;97.99
62978;BME280;49073;42.352;23.808;2023-05-10T13:35:51;94986.69;;;8.73;97.99
62978;BME280;49073;42.352;23.808;2023-05-10T13:38:52;94989.56;;;8.68;97.44
62978;BME280;49073;42.352;23.808;2023-05-10T13:41:53;94989.13;;;8.66;97.48
62978;BME280;49073;42.352;23.808;2023-05-10T13:44:53;94990.00;;;8.70;96.82
62978;BME280;49073;42.352;23.808;2023-05-10T13:47:54;94980.63;;;8.72;97.46
62978;BME280;49073;42.352;23.808;2023-05-10T13:50:55;94987.47;;;8.73;96.47
62978;BME280;49073;42.352;23.808;2023-05-10T13:53:56;94979.06;;;8.71;96.17
62978;BME280;49073;42.352;23.808;2023-05-10T13:56:56;94981.59;;;8.80;96.67
62978;BME280;49073;42.352;23.808;2023-05-10T13:59:58;94979.16;;;8.75;94.89
62978;BME280;49073;42.352;23.808;2023-05-10T14:02:58;94985.00;;;8.93;94.49
62978;BME280;49073;42.352;23.808;2023-05-10T14:05:59;94973.41;;;8.85;93.61
62978;BME280;49073;42.352;23.808;2023-05-10T14:09:00;94977.63;;;8.86;94.12
62978;BME280;49073;42.352;23.808;2023-05-10T14:12:00;94978.03;;;9.01;93.60
62978;BME280;49073;42.352;23.808;2023-05-10T14:15:01;94977.47;;;8.95;93.64
62978;BME280;49073;42.352;23.808;2023-05-10T14:18:06;94980.28;;;8.86;93.65
62978;BME280;49073;42.352;23.808;2023-05-10T14:21:08;94986.47;;;8.91;92.81
62978;BME280;49073;42.352;23.808;2023-05-10T14:24:09;94974.59;;;9.00;92.58
62978;BME280;49073;42.352;23.808;2023-05-10T14:27:09;94976.25;;;9.05;91.02
62978;BME280;49073;42.352;23.808;2023-05-10T14:30:12;94971.38;;;9.07;90.40
62978;BME280;49073;42.352;23.808;2023-05-10T14:33:12;94974.72;;;9.04;89.44
62978;BME280;49073;42.352;23.808;2023-05-10T14:36:13;94973.78;;;9.12;90.95
62978;BME280;49073;42.352;23.808;2023-05-10T14:39:14;94969.59;;;9.11;91.45
62978;BME280;49073;42.352;23.808;2023-05-10T14:42:15;94977.34;;;9.16;90.19
62978;BME280;49073;42.352;23.808;2023-05-10T14:45:16;94978.00;;;9.13;90.18
62978;BME280;49073;42.352;23.808;2023-05-10T14:48:17;94972.56;;;9.10;89.85
62978;BME280;49073;42.352;23.808;2023-05-10T14:51:17;94974.56;;;9.13;90.17
62978;BME280;49073;42.352;23.808;2023-05-10T14:54:21;94981.53;;;9.17;90.86
62978;BME280;49073;42.352;23.808;2023-05-10T14:57:22;94974.41;;;9.34;91.65
62978;BME280;49073;42.352;23.808;2023-05-10T15:00:23;94977.72;;;9.31;88.81
62978;BME280;49073;42.352;23.808;2023-05-10T15:03:23;94984.50;;;9.28;89.20
62978;BME280;49073;42.352;23.808;2023-05-10T15:06:31;94984.50;;;9.28;87.81
62978;BME280;49073;42.352;23.808;2023-05-10T15:09:32;94980.19;;;9.24;88.97
62978;BME280;49073;42.352;23.808;2023-05-10T15:12:32;94986.19;;;9.21;88.80
62978;BME280;49073;42.352;23.808;2023-05-10T15:15:33;94980.91;;;9.08;88.75
62978;BME280;49073;42.352;23.808;2023-05-10T15:18:33;94980.53;;;9.10;88.51
62978;BME280;49073;42.352;23.808;2023-05-10T15:21:34;94970.16;;;9.05;88.10
62978;BME280;49073;42.352;23.808;2023-05-10T15:24:38;94975.25;;;8.97;86.20
62978;BME280;49073;42.352;23.808;2023-05-10T15:27:39;94975.16;;;8.94;87.33
62978;BME280;49073;42.352;23.808;2023-05-10T15:30:40;94966.53;;;8.97;87.86
62978;BME280;49073;42.352;23.808;2023-05-10T15:33:41;94962.41;;;8.99;89.30
62978;BME280;49073;42.352;23.808;2023-05-10T15:36:42;94967.06;;;9.02;88.10
62978;BME280;49073;42.352;23.808;2023-05-10T15:39:44;94963.19;;;9.00;87.99
62978;BME280;49073;42.352;23.808;2023-05-10T15:42:44;94969.28;;;9.00;88.43
62978;BME280;49073;42.352;23.808;2023-05-10T15:45:45;94966.28;;;9.02;88.59
62978;BME280;49073;42.352;23.808;2023-05-10T15:48:45;94955.44;;;8.95;87.57
62978;BME280;49073;42.352;23.808;2023-05-10T15:51:46;94960.56;;;8.87;87.20
62978;BME280;49073;42.352;23.808;2023-05-10T15:54:46;94958.09;;;8.82;88.42
62978;BME280;49073;42.352;23.808;2023-05-10T15:57:47;94952.91;;;8.86;88.73
62978;BME280;49073;42.352;23.808;2023-05-10T16:00:48;94958.34;;;8.77;88.31
62978;BME280;49073;42.352;23.808;2023-05-10T16:03:48;94954.81;;;8.85;89.05
62978;BME280;49073;42.352;23.808;2023-05-10T16:06:49;94954.47;;;8.87;89.49
62978;BME280;49073;42.352;23.808;2023-05-10T16:09:49;94962.00;;;8.85;89.09